Weather at Queen Alia International Airport

Public forecast

Using degrees Celsius for public forecast. Weather courtesy of forecast.io.

Current aviation weather report (METAR) for Queen Alia International Airport

2022/12/01 23:00 (retrieved 12 minutes ago)

OJAI 012300Z 00000KT 5000 HZ NSC 09/06 Q1021 NOSIG

Aviation forecast (TAF) for Queen Alia International Airport

2022/12/01 18:21 Correction (retrieved 5 hours ago)

TAF COR OJAI 011700Z 0118/0224 12008KT 5000 HZ FEW030 PROB40 TEMPO 0202/0208 VRB02KT 2000 BR